Weather   Thornlie   Western Australia


Observations from 22/7/2019 3:30 pm back to 19/7/2019 03:30 pm half hourly.

 

Observations for the previous 72 hours
 
Date/Time
WST
 
Temp
°C
App
Temp
°C
Heat
Index
°C
Wind
Chill
°C
Dew
Point
°C
Rel
Hum
%
 
Dir
 
 
Spd
km/h
Wind
Gust
km/h
 
Spd
kts
 
Gust
kts
Press
MSL
hPa
Rain
Since 9am
mm
 
Solar
W/m2
 
UV
Index
22/03:30pm 16.4 16.4 16.4 10.5 68 0.9 5.2 1021.20 0.0 130 0.0
22/03:00pm 17.1 17.1 17.1 10.9 67 1.7 6.1 1020.90 0.0 255 0.7
22/02:30pm 17.4 17.4 17.4 11.0 66 1.7 7.0 1020.86 0.0 262 0.8
22/02:00pm 16.2 16.2 16.2 10.5 69 1.7 5.2 1020.73 0.0 362 1.5
22/01:30pm 15.0 15.0 15.0 10.8 76 0.9 4.3 1020.69 0.0 169 0.7
22/01:00pm 16.3 16.3 16.3 11.1 71 0.9 3.5 1020.80 0.0 69 0.0
22/12:30pm 16.4 16.4 16.4 11.2 71 1.7 4.3 1020.86 0.0 338 1.6
22/12:00pm 15.7 15.7 15.7 10.7 72 1.7 7.0 1021.17 0.0 432 2.0
22/11:30am 15.9 15.9 15.9 11.1 73 1.7 4.3 1021.37 0.0 744 2.1
22/11:00am 14.7 14.7 14.7 11.1 79 0.9 3.5 1021.51 0.0 621 1.8
22/10:30am 13.8 13.8 13.8 10.8 82 0.9 3.5 1021.51 0.0 255 1.0
22/10:00am 14.2 14.2 14.2 10.8 80 2.6 7.0 1021.47 0.0 243 0.7
22/09:30am 12.8 12.8 12.3 11.4 91 0.0 4.3 1020.86 0.0 371 0.7
22/09:00am 11.9 11.9 11.9 11.1 95 0.0 0.0 1020.53 2.6 113 0.0
22/08:30am 11.0 11.0 11.0 10.4 96 0.0 0.0 1019.85 2.6 179 0.0
22/08:00am 10.4 10.4 10.4 9.8 96 0.0 0.0 1019.51 2.6 40 0.0
22/07:30am 9.9 9.9 9.9 9.1 95 0.0 0.0 1019.37 2.6 7 0.0
22/07:00am 9.9 9.9 9.9 9.0 94 0.0 0.0 1019.04 2.6 0 0.0
22/06:30am 10.3 10.3 10.3 9.4 94 0.0 0.0 1018.66 2.6 0 0.0
22/06:00am 10.9 10.9 10.9 10.0 94 0.0 0.0 1018.29 2.6 0 0.0
22/05:30am 11.5 11.5 11.5 10.6 94 0.0 0.0 1017.92 2.6 0 0.0
22/05:00am 11.7 11.7 11.7 10.9 95 0.0 0.0 1017.78 2.4 0 0.0
22/04:30am 11.8 11.8 11.8 10.8 94 0.0 0.0 1017.48 2.4 0 0.0
22/04:00am 12.2 12.2 12.2 11.3 94 0.0 0.0 1017.48 2.4 0 0.0
22/03:30am 12.3 12.3 12.3 11.4 94 0.0 0.0 1017.31 2.4 0 0.0
22/03:00am 12.6 12.6 12.6 11.6 94 0.0 0.0 1017.27 2.4 0 0.0
22/02:30am 12.6 12.6 12.6 11.3 92 0.0 0.0 1017.27 2.4 0 0.0
22/02:00am 12.9 12.9 12.9 11.5 91 0.0 0.0 1017.24 2.4 0 0.0
22/01:30am 13.2 13.2 13.2 11.8 91 0.0 1.7 1017.44 2.4 0 0.0
22/01:00am 13.6 13.6 13.6 12.0 90 1.7 8.7 1017.38 2.4 0 0.0
22/12:30am 14.1 14.1 14.1 12.7 91 1.7 7.0 1017.04 2.2 0 0.0
22/12:00am 14.5 14.5 14.5 12.7 89 0.9 5.2 1017.04 2.2 0 0.0
21/11:30pm 14.4 14.4 14.4 12.5 88 0.0 3.5 1016.94 2.2 0 0.0
21/11:00pm 14.9 14.9 14.9 12.4 85 0.9 6.1 1017.14 1.8 0 0.0
21/10:30pm 14.5 14.5 14.5 12.5 88 0.9 6.1 1017.27 1.8 0 0.0
21/10:00pm 15.3 15.3 14.8 12.9 86 0.9 6.1 1017.21 1.6 0 0.0
21/09:30pm 15.0 15.0 15.0 12.9 87 0.0 3.5 1017.27 1.6 0 0.0
21/09:00pm 14.9 14.9 14.9 12.7 87 0.9 6.1 1017.31 1.6 0 0.0
21/08:30pm 14.9 14.9 14.9 12.8 87 1.7 9.6 1017.41 1.6 0 0.0
21/08:00pm 15.2 15.2 15.2 13.1 87 0.9 5.2 1017.17 1.6 0 0.0
21/07:30pm 14.7 14.7 14.7 12.5 87 0.9 3.5 1017.17 1.6 0 0.0
21/07:00pm 14.4 14.4 14.4 12.8 90 0.0 2.6 1017.48 1.6 0 0.0
21/06:30pm 15.2 15.2 15.2 12.9 86 2.6 8.7 1017.24 1.6 0 0.0
21/06:00pm 16.3 16.3 16.3 12.1 76 2.6 8.7 1016.77 0.8 0 0.0
21/05:30pm 15.7 15.7 15.7 12.2 80 0.9 6.1 1016.70 0.8 0 0.0
21/05:00pm 15.2 15.2 15.2 12.7 85 0.9 7.0 1016.66 0.8 35 0.0
21/04:30pm 17.3 17.3 16.8 11.1 67 3.5 11.3 1016.87 0.0 30 0.0
21/04:00pm 17.4 17.4 17.4 11.4 68 1.7 8.7 1016.73 0.0 69 0.0
 
Date/Time
WST
 
Temp
°C
App
Temp
°C
Heat
Index
°C
Wind
Chill
°C
Dew
Point
°C
Rel
Hum
%
 
Dir
 
 
Spd
km/h
Wind
Gust
km/h
 
Spd
kts
 
Gust
kts
Press
MSL
hPa
Rain
Since 9am
mm
 
Solar
W/m2
 
UV
Index
21/03:30pm 17.1 17.1 17.1 12.0 72 2.6 10.4 1016.90 0.0 155 0.0
21/03:00pm 17.3 17.3 17.3 11.6 69 3.5 8.7 1016.50 0.0 162 0.5
21/02:30pm 16.1 16.1 16.1 12.1 77 1.7 7.8 1016.56 0.0 155 0.6
21/02:00pm 17.3 17.3 16.8 12.4 73 4.3 15.7 1016.70 0.0 153 0.7
21/01:30pm 18.2 18.2 18.2 11.5 65 2.6 10.4 1016.66 0.0 264 1.3
21/01:00pm 19.1 19.1 18.8 10.9 59 2.6 8.7 1016.77 0.0 301 1.4
21/12:30pm 18.9 18.9 18.9 10.2 57 3.5 11.3 1017.21 0.0 190 1.5
21/12:00pm 17.5 17.5 17.5 11.3 67 3.5 9.6 1017.78 0.0 292 2.1
21/11:30am 18.4 18.4 18.4 11.0 62 4.3 12.2 1018.16 0.0 230 1.0
21/11:00am 18.2 18.2 16.6 10.8 62 2.6 11.3 1018.32 0.0 661 1.8
21/10:30am 17.0 17.0 17.0 12.3 74 1.7 7.0 1018.70 0.0 141 0.6
21/10:00am 17.4 17.4 17.4 11.7 69 3.5 12.2 1018.60 0.0 178 0.7
21/09:30am 17.2 17.2 17.2 12.3 73 1.7 7.8 1018.36 0.0 171 0.5
21/09:00am 15.8 15.8 15.8 12.4 80 0.9 3.5 1018.22 2.0 91 0.0
21/08:30am 15.8 15.8 15.8 11.4 75 0.9 5.2 1018.29 2.0 37 0.0
21/08:00am 16.2 16.2 16.2 9.9 66 0.9 8.7 1018.12 2.0 21 0.0
21/07:30am 16.0 16.0 16.0 9.9 67 2.6 6.1 1017.92 2.0 11 0.0
21/07:00am 15.4 15.4 15.4 11.8 79 0.9 3.5 1017.85 2.0 0 0.0
21/06:30am 14.8 14.8 14.8 10.8 77 0.0 7.0 1017.68 2.0 0 0.0
21/06:00am 15.1 15.1 15.1 10.9 76 0.0 3.5 1017.68 2.0 0 0.0
21/05:30am 15.3 15.3 15.3 11.5 78 1.7 7.8 1017.75 2.0 0 0.0
21/05:00am 14.8 14.8 14.4 12.5 86 0.9 7.0 1017.78 2.0 0 0.0
21/04:30am 14.4 14.4 14.4 11.9 85 0.0 0.0 1017.75 1.8 0 0.0
21/04:00am 14.8 14.8 14.8 12.3 85 0.9 3.5 1017.99 1.8 0 0.0
21/03:30am 14.1 14.1 14.1 12.3 89 0.0 5.2 1018.09 1.8 0 0.0
21/03:00am 13.6 13.6 13.6 12.5 93 0.0 1.7 1018.29 1.8 0 0.0
21/02:30am 13.9 13.9 13.9 12.8 93 0.0 0.0 1018.43 1.8 0 0.0
21/02:00am 14.1 14.1 14.1 13.1 94 0.0 2.6 1018.56 1.8 0 0.0
21/01:30am 14.2 14.2 14.2 13.2 94 0.0 0.0 1018.80 1.8 0 0.0
21/01:00am 14.3 14.3 14.3 13.2 93 0.0 1.7 1018.87 1.8 0 0.0
21/12:30am 14.4 14.4 14.4 13.2 92 0.9 5.2 1019.07 1.4 0 0.0
21/12:00am 14.7 14.7 14.7 13.0 90 0.0 3.5 1019.07 0.8 0 0.0
20/11:30pm 13.7 13.7 13.7 11.4 86 0.0 0.9 1019.27 0.4 0 0.0
20/11:00pm 15.4 15.4 15.4 11.8 79 0.9 4.3 1019.44 0.4 0 0.0
20/10:30pm 14.3 14.3 14.3 11.5 83 0.0 0.9 1019.65 0.4 0 0.0
20/10:00pm 14.5 14.5 14.5 11.5 82 0.0 0.0 1019.68 0.4 0 0.0
20/09:30pm 15.1 15.1 15.1 11.5 79 0.0 3.5 1019.71 0.4 0 0.0
20/09:00pm 14.9 14.9 14.9 11.5 80 0.0 3.5 1019.98 0.4 0 0.0
20/08:30pm 14.1 14.1 14.1 11.3 83 0.0 1.7 1020.02 0.4 0 0.0
20/08:00pm 14.4 14.4 14.4 11.0 80 0.0 7.0 1020.02 0.4 0 0.0
20/07:30pm 14.4 14.4 14.4 10.8 79 0.0 1.7 1019.75 0.4 0 0.0
20/07:00pm 14.1 14.1 14.1 10.9 81 0.0 0.0 1019.68 0.4 0 0.9
20/06:30pm 14.7 14.7 14.7 10.9 78 0.0 0.9 1019.61 0.4 0 1.0
20/06:00pm 14.7 14.7 14.7 10.7 77 0.0 1.7 1019.37 0.4 0 0.0
20/05:30pm 15.0 15.0 15.0 11.0 77 0.0 0.0 1019.20 0.4 0 0.0
20/05:00pm 15.6 15.6 15.6 11.1 75 0.0 2.6 1019.17 0.4 35 0.0
20/04:30pm 15.4 15.4 15.4 11.6 78 0.0 0.0 1019.07 0.4 62 0.0
20/04:00pm 15.1 15.1 15.1 11.2 78 0.9 3.5 1019.07 0.4 151 0.0
 
Date/Time
WST
 
Temp
°C
App
Temp
°C
Heat
Index
°C
Wind
Chill
°C
Dew
Point
°C
Rel
Hum
%
 
Dir
 
 
Spd
km/h
Wind
Gust
km/h
 
Spd
kts
 
Gust
kts
Press
MSL
hPa
Rain
Since 9am
mm
 
Solar
W/m2
 
UV
Index
20/03:30pm 14.3 14.3 14.3 10.7 79 0.9 4.3 1019.04 0.4 156 0.0
20/03:00pm 15.6 15.6 15.6 10.5 72 2.6 13.0 1018.90 0.2 102 0.5
20/02:30pm 14.2 14.2 14.2 11.2 82 1.7 8.7 1018.80 0.2 243 0.8
20/02:00pm 15.2 15.2 14.9 10.8 75 4.3 11.3 1018.76 0.2 308 1.1
20/01:30pm 15.9 15.9 15.9 9.8 67 6.1 16.5 1018.63 0.2 158 0.8
20/01:00pm 15.4 15.4 15.4 10.4 72 2.6 7.8 1018.46 0.2 230 1.2
20/12:30pm 16.1 16.1 16.1 10.4 69 5.2 16.5 1018.63 0.2 557 1.8
20/12:00pm 15.3 15.3 15.3 9.9 70 2.6 8.7 1018.73 0.2 308 1.5
20/11:30am 15.1 15.1 15.1 10.1 72 3.5 10.4 1018.90 0.2 612 2.0
20/11:00am 13.6 13.6 13.6 10.8 83 0.9 5.2 1018.80 0.2 202 0.8
20/10:30am 13.0 13.0 13.0 11.4 90 0.0 3.5 1018.87 0.2 132 0.9
20/10:00am 11.7 11.7 11.7 11.1 96 0.0 0.0 1018.83 0.2 513 0.9
20/09:30am 10.8 10.8 10.8 10.2 96 0.0 0.0 1018.22 0.2 207 0.7
20/09:00am 9.9 9.9 9.9 9.3 96 0.0 0.0 1017.65 19.4 70 0.0
20/08:30am 9.3 9.3 9.3 8.9 97 0.0 1.7 1017.21 19.4 83 0.0
20/08:00am 8.3 8.3 8.3 7.7 96 0.0 0.0 1016.50 19.4 21 0.0
20/07:30am 7.7 7.7 7.7 6.9 95 0.0 0.0 1015.99 19.2 14 0.0
20/07:00am 7.8 7.8 7.8 7.1 95 0.0 0.0 1015.38 19.2 0 0.0
20/06:30am 8.3 8.3 8.3 7.6 95 0.0 0.0 1014.84 19.2 0 0.0
20/06:00am 8.6 8.6 8.6 8.0 96 0.0 0.0 1014.43 19.2 0 0.0
20/05:30am 8.3 8.3 8.3 7.6 95 0.0 0.0 1013.82 18.8 0 0.0
20/05:00am 8.2 8.2 8.2 7.5 95 0.0 2.6 1013.48 18.8 0 0.0
20/04:30am 8.6 8.6 8.6 7.6 94 0.0 0.0 1012.94 18.6 0 0.0
20/04:00am 9.1 9.1 9.1 8.0 93 0.0 0.0 1012.80 18.6 0 0.0
20/03:30am 9.3 9.3 9.3 8.3 93 0.9 3.5 1012.64 18.6 0 0.0
20/03:00am 8.7 8.7 8.7 7.8 94 0.0 1.7 1012.13 18.4 0 0.0
20/02:30am 9.3 9.3 9.3 8.1 92 0.0 0.0 1011.82 18.2 0 0.0
20/02:00am 9.9 9.9 9.9 8.6 92 0.9 3.5 1011.55 18.2 0 0.0
20/01:30am 9.7 9.7 9.7 8.3 91 1.7 6.1 1011.28 16.8 0 0.0
20/01:00am 9.1 9.1 9.1 7.7 91 0.0 0.0 1010.67 16.6 0 0.0
20/12:30am 9.7 9.7 9.7 8.2 90 3.5 13.9 1010.43 16.6 0 0.0
20/12:00am 10.7 10.7 7.9 9.3 91 5.2 18.3 1010.64 14.4 0 0.0
19/11:30pm 10.7 10.7 10.7 9.6 93 0.0 1.7 1009.62 13.6 0 0.0
19/11:00pm 11.0 11.0 11.0 9.7 92 0.0 2.6 1009.15 13.4 0 0.0
19/10:30pm 11.1 11.1 11.1 9.9 92 0.0 1.7 1009.28 12.6 0 0.0
19/10:00pm 11.8 11.8 11.8 10.4 91 3.5 16.5 1009.38 12.4 0 0.0
19/09:30pm 12.4 12.4 12.4 11.0 91 0.9 7.8 1008.37 11.4 0 0.0
19/09:00pm 12.8 12.8 12.8 10.7 87 2.6 7.8 1008.50 11.0 0 0.0
19/08:30pm 12.8 12.8 10.4 10.5 86 2.6 13.9 1008.10 10.6 0 0.0
19/08:00pm 13.2 13.2 13.0 11.0 87 4.3 13.9 1007.69 10.6 0 0.0
19/07:30pm 13.3 13.3 13.3 11.7 90 3.5 13.0 1007.28 10.6 0 0.0
19/07:00pm 13.5 13.5 13.1 12.1 91 5.2 17.4 1007.12 10.4 0 0.9
19/06:30pm 14.8 14.8 14.8 13.0 89 3.5 9.6 1006.34 9.4 0 1.0
19/06:00pm 14.3 14.3 14.3 12.8 91 0.9 5.2 1005.66 9.4 0 0.0
19/05:30pm 14.6 14.6 14.6 13.7 94 0.0 2.6 1005.66 9.0 0 0.0
19/05:00pm 14.5 14.5 14.5 13.4 93 1.7 9.6 1005.52 8.8 7 0.0
19/04:30pm 14.8 14.8 14.8 13.7 93 1.7 10.4 1005.32 7.6 12 0.0
19/04:00pm 14.1 14.1 13.6 12.8 92 6.1 17.4 1005.76 7.4 62 0.0
19/03:30pm 16.1 16.1 16.1 14.8 92 0.9 6.1 1005.12 4.6 14 0.0
 
Date/Time
WST
 
Temp
°C
App
Temp
°C
Heat
Index
°C
Wind
Chill
°C
Dew
Point
°C
Rel
Hum
%
 
Dir
 
 
Spd
km/h
Wind
Gust
km/h
 
Spd
kts
 
Gust
kts
Press
MSL
hPa
Rain
Since 9am
mm
 
Solar
W/m2
 
UV
Index


The information provided herein is for informational purposes only and is not guaranteed to be accurate in any way. Do not make any life threatening decisions either directly or indirectly based on the information herein, no responsibility is accepted for any injuries, accidents or other incidents whether fatal or non-fatal, as a direct or indirect result of actions taken based upon the information herein.
Please refer to the Australian Government Bureau of Meteorology for the official weather and forecast.


Copyright © 2019

 



page updated 22/07/2019 3:30:03 PM
cumulus software support forum
powered by  cumulus v1.9.4 (1099)
maintained by  IT ability